Time;durP1;ratioP1;P1;durP2;ratioP2;P2;SDS_P1;SDS_P2;PMS_P1;PMS_P2;Temp;Humidity;BMP_temperature;BMP_pressure;BME280_temperature;BME280_humidity;BME280_pressure;Samples;Min_cycle;Max_cycle;Signal;HPM_P1;HPM_P2
2021/05/01 00:00:08;;;;;;;9.87;8.87;;;8.60;99.90;;;;;;6084185;23;20424;-69
2021/05/01 00:02:34;;;;;;;15.20;8.67;;;8.60;99.90;;;;;;6084944;23;20499;-69
2021/05/01 00:05:00;;;;;;;11.73;8.80;;;8.60;99.90;;;;;;6080518;23;20427;-69
2021/05/01 00:07:27;;;;;;;11.10;8.67;;;8.60;99.90;;;;;;6087080;23;20434;-70
2021/05/01 00:09:53;;;;;;;11.20;8.70;;;8.60;99.90;;;;;;6088088;23;20525;-69
2021/05/01 00:12:19;;;;;;;12.63;8.30;;;8.60;99.90;;;;;;6088018;23;20420;-68
2021/05/01 00:14:45;;;;;;;10.03;7.80;;;8.60;99.90;;;;;;6087634;23;20485;-68
2021/05/01 00:17:13;;;;;;;11.03;8.90;;;8.60;99.90;;;;;;6087900;23;20417;-68
2021/05/01 00:19:39;;;;;;;12.83;8.80;;;8.60;99.90;;;;;;6088216;23;20416;-68
2021/05/01 00:22:05;;;;;;;12.83;9.07;;;8.60;99.90;;;;;;6087639;23;20416;-69
2021/05/01 00:24:32;;;;;;;12.30;8.70;;;8.60;99.90;;;;;;6087084;23;20440;-68
2021/05/01 00:26:59;;;;;;;10.70;8.60;;;8.50;99.90;;;;;;6087296;23;20444;-68
2021/05/01 00:29:26;;;;;;;12.40;8.33;;;8.50;99.90;;;;;;6087186;23;20440;-69
2021/05/01 00:31:52;;;;;;;15.47;9.23;;;8.50;99.90;;;;;;6086512;23;20456;-69
2021/05/01 00:34:19;;;;;;;11.23;8.93;;;8.50;99.90;;;;;;6087844;23;20434;-69
2021/05/01 00:36:45;;;;;;;10.70;9.63;;;8.50;99.90;;;;;;6087593;23;20420;-69
2021/05/01 00:39:12;;;;;;;10.77;8.60;;;8.60;99.90;;;;;;6086987;23;20401;-69
2021/05/01 00:41:41;;;;;;;10.73;8.63;;;8.60;99.90;;;;;;6086868;23;20416;-68
2021/05/01 00:44:09;;;;;;;10.30;8.60;;;8.60;99.90;;;;;;6087317;23;20420;-69
2021/05/01 00:46:35;;;;;;;11.17;9.07;;;8.60;99.90;;;;;;6096175;23;20440;-69
2021/05/01 00:49:01;;;;;;;10.73;9.23;;;8.60;99.90;;;;;;6086821;23;20887;-68
2021/05/01 00:51:28;;;;;;;11.20;8.13;;;8.60;99.90;;;;;;6087418;23;20484;-68
2021/05/01 00:53:57;;;;;;;9.67;8.67;;;8.60;99.90;;;;;;6087191;23;20416;-69
2021/05/01 00:56:23;;;;;;;9.83;8.83;;;8.60;99.90;;;;;;6086464;23;20472;-69
2021/05/01 00:58:49;;;;;;;12.07;8.13;;;8.60;99.90;;;;;;6085313;23;20779;-69
2021/05/01 01:01:17;;;;;;;12.07;9.47;;;8.60;99.90;;;;;;6085811;23;20452;-68
2021/05/01 01:03:45;;;;;;;11.60;10.00;;;8.60;99.90;;;;;;6085852;23;20443;-68
2021/05/01 01:06:12;;;;;;;15.33;8.97;;;8.60;99.90;;;;;;6085628;23;20444;-69
2021/05/01 01:08:39;;;;;;;11.73;8.40;;;8.60;99.90;;;;;;6085445;23;20425;-68
2021/05/01 01:11:06;;;;;;;14.00;9.20;;;8.60;99.90;;;;;;6086404;23;20428;-69
2021/05/01 01:13:32;;;;;;;12.90;8.13;;;8.60;99.90;;;;;;6087199;23;20416;-69
2021/05/01 01:16:04;;;;;;;14.13;9.40;;;8.60;99.90;;;;;;6086610;23;20483;-68
2021/05/01 01:18:31;;;;;;;9.90;8.87;;;8.50;99.90;;;;;;6087534;23;20468;-68
2021/05/01 01:21:00;;;;;;;12.40;8.70;;;8.50;99.90;;;;;;6088340;23;20420;-68
2021/05/01 01:23:27;;;;;;;12.23;10.23;;;8.50;99.90;;;;;;6087781;23;20503;-68
2021/05/01 01:25:56;;;;;;;13.03;9.97;;;8.50;99.90;;;;;;6097008;23;20593;-69
2021/05/01 01:28:22;;;;;;;11.30;9.10;;;8.40;99.90;;;;;;6086843;23;20416;-69
2021/05/01 01:30:48;;;;;;;13.37;9.30;;;8.40;99.90;;;;;;6086327;23;20445;-69
2021/05/01 01:33:15;;;;;;;14.00;9.20;;;8.40;99.90;;;;;;6086214;23;20537;-68
2021/05/01 01:35:41;;;;;;;11.57;9.60;;;8.40;99.90;;;;;;6086457;23;20687;-69
2021/05/01 01:38:09;;;;;;;13.50;8.63;;;8.40;99.90;;;;;;6086089;23;20502;-68
2021/05/01 01:40:38;;;;;;;14.23;9.57;;;8.40;99.90;;;;;;6086238;23;20420;-69
2021/05/01 01:43:05;;;;;;;12.53;9.83;;;8.40;99.90;;;;;;6086408;23;20504;-69
2021/05/01 01:45:32;;;;;;;14.53;9.70;;;8.40;99.90;;;;;;6088614;23;20468;-69
2021/05/01 01:47:59;;;;;;;11.13;9.60;;;8.40;99.90;;;;;;6087117;23;20431;-69
2021/05/01 01:50:27;;;;;;;11.17;8.77;;;8.40;99.90;;;;;;6086635;23;20440;-68
2021/05/01 01:52:53;;;;;;;11.20;9.80;;;8.40;99.90;;;;;;6087422;23;20436;-69
2021/05/01 01:55:21;;;;;;;13.10;10.10;;;8.50;99.90;;;;;;6087245;23;20417;-70
2021/05/01 01:57:49;;;;;;;11.60;9.00;;;8.50;99.90;;;;;;6086422;23;20425;-68
2021/05/01 02:00:19;;;;;;;15.03;10.30;;;8.50;99.90;;;;;;6086553;23;20419;-68
2021/05/01 02:02:46;;;;;;;15.37;10.70;;;8.50;99.90;;;;;;6086857;23;20427;-69
2021/05/01 02:05:13;;;;;;;12.47;10.13;;;8.50;99.90;;;;;;6086299;23;20448;-68
2021/05/01 02:07:42;;;;;;;14.23;10.30;;;8.50;99.90;;;;;;6088474;23;20468;-69
2021/05/01 02:10:10;;;;;;;15.93;10.30;;;8.50;99.90;;;;;;6087101;23;20417;-69
2021/05/01 02:12:38;;;;;;;13.43;10.77;;;8.50;99.90;;;;;;6086540;23;20480;-69
2021/05/01 02:15:09;;;;;;;15.53;11.80;;;8.50;99.90;;;;;;6086481;23;20424;-68
2021/05/01 02:17:36;;;;;;;13.30;10.80;;;8.50;99.90;;;;;;6086348;23;20416;-68
2021/05/01 02:20:06;;;;;;;16.07;11.53;;;8.50;99.90;;;;;;6095617;23;20500;-69
2021/05/01 02:22:32;;;;;;;14.90;11.60;;;8.50;99.90;;;;;;6085373;23;20416;-69
2021/05/01 02:24:58;;;;;;;19.20;11.83;;;8.50;99.90;;;;;;6085721;23;20451;-69
2021/05/01 02:27:25;;;;;;;14.80;11.20;;;8.50;99.90;;;;;;6086708;23;20444;-68
2021/05/01 02:29:51;;;;;;;15.80;11.30;;;8.50;99.90;;;;;;6087283;23;20444;-69
2021/05/01 02:32:18;;;;;;;17.47;11.50;;;8.50;99.90;;;;;;6086628;23;20444;-68
2021/05/01 02:34:44;;;;;;;16.73;10.57;;;8.50;99.90;;;;;;6086888;23;20420;-68
2021/05/01 02:37:11;;;;;;;14.13;10.40;;;8.50;99.90;;;;;;6086808;23;20435;-68
2021/05/01 02:39:38;;;;;;;12.70;11.03;;;8.50;99.90;;;;;;6086563;23;20483;-68
2021/05/01 02:42:06;;;;;;;17.57;10.10;;;8.50;99.90;;;;;;6087220;23;20420;-68
2021/05/01 02:44:32;;;;;;;12.07;10.73;;;8.50;99.90;;;;;;6086821;23;20416;-69
2021/05/01 02:46:58;;;;;;;22.60;11.93;;;8.50;99.90;;;;;;6086225;23;20440;-69
2021/05/01 02:49:25;;;;;;;15.00;12.00;;;8.50;99.90;;;;;;6087523;23;20416;-68
2021/05/01 02:51:51;;;;;;;15.83;10.83;;;8.50;99.90;;;;;;6088067;23;20503;-68
2021/05/01 02:54:18;;;;;;;14.13;11.10;;;8.50;99.90;;;;;;6087105;23;20475;-69
2021/05/01 02:56:44;;;;;;;13.90;12.13;;;8.50;99.90;;;;;;6097783;23;20420;-68
2021/05/01 02:59:13;;;;;;;14.97;11.10;;;8.50;99.90;;;;;;6087581;23;20507;-69
2021/05/01 03:01:39;;;;;;;13.10;10.63;;;8.40;99.90;;;;;;6087652;23;20439;-68
2021/05/01 03:04:06;;;;;;;15.33;12.13;;;8.40;99.90;;;;;;6087298;23;20488;-69
2021/05/01 03:06:37;;;;;;;15.57;11.50;;;8.40;99.90;;;;;;6086509;23;20440;-68
2021/05/01 03:09:04;;;;;;;16.87;11.60;;;8.40;99.90;;;;;;6086317;23;20405;-69
2021/05/01 03:11:30;;;;;;;13.27;11.00;;;8.40;99.90;;;;;;6086702;23;20421;-68
2021/05/01 03:13:57;;;;;;;13.83;12.00;;;8.40;99.90;;;;;;6086993;23;20758;-68
2021/05/01 03:16:24;;;;;;;14.63;11.27;;;8.50;99.90;;;;;;6082935;23;20417;-67
2021/05/01 03:18:50;;;;;;;19.47;12.00;;;8.50;99.90;;;;;;6074775;23;20420;-66
2021/05/01 03:21:16;;;;;;;14.10;11.20;;;8.40;99.90;;;;;;6074924;23;20420;-66
2021/05/01 03:23:43;;;;;;;17.53;10.20;;;8.40;99.90;;;;;;6074886;23;20430;-66
2021/05/01 03:26:10;;;;;;;14.20;10.97;;;8.40;99.90;;;;;;6075156;23;20444;-67
2021/05/01 03:28:36;;;;;;;14.30;11.57;;;8.40;99.90;;;;;;6074809;23;20420;-66
2021/05/01 03:31:02;;;;;;;13.63;10.67;;;8.40;99.90;;;;;;6074307;23;20756;-66
2021/05/01 03:33:29;;;;;;;15.10;10.97;;;8.40;99.90;;;;;;6074832;23;20424;-66
2021/05/01 03:35:56;;;;;;;14.50;10.33;;;8.40;99.90;;;;;;6075148;23;20878;-66
2021/05/01 03:38:22;;;;;;;17.53;11.17;;;8.40;99.90;;;;;;6076235;23;20420;-66
2021/05/01 03:40:49;;;;;;;13.77;10.53;;;8.50;99.90;;;;;;6075237;23;20430;-66
2021/05/01 03:43:16;;;;;;;15.17;10.60;;;8.50;99.90;;;;;;6074238;23;20416;-66
2021/05/01 03:45:42;;;;;;;16.63;10.87;;;8.40;99.90;;;;;;6074883;23;20440;-66
2021/05/01 03:48:09;;;;;;;18.10;11.13;;;8.40;99.90;;;;;;6075372;23;20723;-66
2021/05/01 03:50:35;;;;;;;16.07;10.73;;;8.40;99.90;;;;;;6074721;23;20901;-66
2021/05/01 03:53:02;;;;;;;17.77;12.30;;;8.40;99.90;;;;;;6074762;23;20420;-66
2021/05/01 03:55:29;;;;;;;14.43;11.33;;;8.40;99.90;;;;;;6075583;23;20424;-66
2021/05/01 03:57:56;;;;;;;14.53;11.33;;;8.40;99.90;;;;;;6083372;23;20765;-67
2021/05/01 04:00:23;;;;;;;13.53;10.60;;;8.40;99.90;;;;;;6088190;23;20432;-65
2021/05/01 04:02:52;;;;;;;14.73;11.50;;;8.40;99.90;;;;;;6086157;23;20420;-66
2021/05/01 04:05:22;;;;;;;15.00;12.63;;;8.40;99.90;;;;;;6075237;23;20416;-66
2021/05/01 04:07:48;;;;;;;19.77;13.23;;;8.50;99.90;;;;;;6079725;23;20423;-66
2021/05/01 04:10:15;;;;;;;19.10;13.70;;;8.50;99.90;;;;;;6079227;23;20416;-66
2021/05/01 04:12:41;;;;;;;18.10;12.53;;;8.50;99.90;;;;;;6076891;23;20418;-66
2021/05/01 04:15:09;;;;;;;16.20;11.50;;;8.60;99.90;;;;;;6075431;23;20428;-67
2021/05/01 04:17:36;;;;;;;15.03;11.60;;;8.60;99.90;;;;;;6077801;23;20413;-65
2021/05/01 04:20:06;;;;;;;14.90;11.93;;;8.60;99.90;;;;;;6076256;23;20417;-67
2021/05/01 04:22:34;;;;;;;14.67;11.87;;;8.60;99.90;;;;;;6076087;23;20411;-67
2021/05/01 04:25:00;;;;;;;17.33;12.27;;;8.60;99.90;;;;;;6077124;23;20703;-66
2021/05/01 04:27:29;;;;;;;17.67;11.77;;;8.60;99.90;;;;;;6077367;23;20495;-67
2021/05/01 04:29:55;;;;;;;16.90;10.90;;;8.60;99.90;;;;;;6080008;23;20424;-66
2021/05/01 04:32:22;;;;;;;14.30;11.07;;;8.60;99.90;;;;;;6083297;23;20444;-65
2021/05/01 04:34:48;;;;;;;17.73;11.93;;;8.70;99.90;;;;;;6084452;23;20417;-66
2021/05/01 04:37:15;;;;;;;20.40;11.80;;;8.70;99.90;;;;;;6084296;23;20426;-66
2021/05/01 04:39:41;;;;;;;12.93;10.60;;;8.70;99.90;;;;;;6084831;23;20404;-66
2021/05/01 04:42:08;;;;;;;17.13;11.23;;;8.70;99.90;;;;;;6084195;23;20420;-66
2021/05/01 04:44:34;;;;;;;12.87;10.77;;;8.80;99.90;;;;;;6085716;23;20719;-67
2021/05/01 04:47:00;;;;;;;15.43;11.93;;;8.80;99.90;;;;;;6082923;23;20739;-66
2021/05/01 04:49:31;;;;;;;14.40;10.63;;;8.80;99.90;;;;;;6077828;23;20420;-66
2021/05/01 04:51:57;;;;;;;17.70;11.93;;;8.90;99.90;;;;;;6074723;23;20416;-66
2021/05/01 04:54:23;;;;;;;15.07;10.83;;;8.90;99.90;;;;;;6075638;23;20424;-67
2021/05/01 04:56:49;;;;;;;16.07;10.77;;;8.90;99.90;;;;;;6074570;23;20428;-66
2021/05/01 04:59:15;;;;;;;13.90;10.60;;;8.90;99.90;;;;;;6075236;23;20906;-65
2021/05/01 05:01:42;;;;;;;14.63;11.37;;;8.90;99.90;;;;;;6075024;23;20421;-66
2021/05/01 05:04:08;;;;;;;14.33;11.67;;;8.90;99.90;;;;;;6074093;23;20880;-65
2021/05/01 05:06:35;;;;;;;15.80;11.67;;;8.90;99.90;;;;;;6073736;23;20445;-65
2021/05/01 05:09:03;;;;;;;18.13;10.97;;;8.90;99.90;;;;;;6073534;23;20902;-67
2021/05/01 05:11:30;;;;;;;16.73;11.57;;;9.00;99.90;;;;;;6074505;23;20420;-67
2021/05/01 05:13:56;;;;;;;18.47;11.70;;;9.00;99.90;;;;;;6074471;23;20774;-66
2021/05/01 05:16:22;;;;;;;16.40;11.90;;;9.00;99.90;;;;;;6076211;23;20416;-66
2021/05/01 05:18:49;;;;;;;15.37;11.57;;;9.00;99.90;;;;;;6081568;23;20420;-67
2021/05/01 05:21:15;;;;;;;17.60;12.40;;;9.10;99.90;;;;;;6074256;23;20484;-66
2021/05/01 05:23:42;;;;;;;15.00;11.33;;;9.10;99.90;;;;;;6073681;23;20421;-65
2021/05/01 05:26:08;;;;;;;13.87;11.03;;;9.10;99.90;;;;;;6073759;23;20440;-66
2021/05/01 05:28:34;;;;;;;14.07;11.73;;;9.10;99.90;;;;;;6073377;23;20898;-67
2021/05/01 05:31:00;;;;;;;14.80;11.37;;;9.10;99.90;;;;;;6075881;23;20449;-66
2021/05/01 05:33:27;;;;;;;18.50;11.77;;;9.20;99.90;;;;;;6078963;23;20423;-66
2021/05/01 05:35:53;;;;;;;17.30;12.30;;;9.20;99.90;;;;;;6078570;23;20413;-65
2021/05/01 05:38:19;;;;;;;14.63;11.70;;;9.30;99.90;;;;;;6073130;23;20714;-65
2021/05/01 05:40:46;;;;;;;16.57;10.87;;;9.30;99.90;;;;;;6073360;23;20420;-66
2021/05/01 05:43:12;;;;;;;17.07;12.43;;;9.30;99.90;;;;;;6072646;23;20916;-66
2021/05/01 05:45:40;;;;;;;19.40;11.90;;;9.30;99.90;;;;;;6073089;23;20420;-65
2021/05/01 05:48:07;;;;;;;16.63;12.23;;;9.40;99.90;;;;;;6073140;23;20431;-66
2021/05/01 05:50:33;;;;;;;16.27;12.30;;;9.40;99.90;;;;;;6073585;23;20425;-68
2021/05/01 05:53:02;;;;;;;20.83;12.60;;;9.40;99.90;;;;;;6072311;23;20450;-67
2021/05/01 05:55:30;;;;;;;26.17;15.60;;;9.50;99.90;;;;;;6073319;23;20420;-67
2021/05/01 05:57:57;;;;;;;22.97;13.50;;;9.50;99.90;;;;;;6073385;23;20420;-67
2021/05/01 06:00:26;;;;;;;19.43;13.07;;;9.60;99.90;;;;;;6074436;23;20779;-67
2021/05/01 06:02:53;;;;;;;19.43;12.50;;;9.60;99.90;;;;;;6075385;23;20420;-67
2021/05/01 06:05:25;;;;;;;18.47;13.20;;;9.60;99.90;;;;;;6075454;23;20417;-68
2021/05/01 06:07:52;;;;;;;21.50;13.33;;;9.70;99.90;;;;;;6076036;23;20755;-65
2021/05/01 06:10:19;;;;;;;18.27;12.70;;;9.70;99.90;;;;;;6078556;23;20424;-66
2021/05/01 06:12:46;;;;;;;22.83;12.63;;;9.70;99.90;;;;;;6077773;23;20420;-67
2021/05/01 06:15:14;;;;;;;15.47;12.30;;;9.70;99.90;;;;;;6076337;23;20443;-66
2021/05/01 06:17:42;;;;;;;21.10;12.20;;;9.80;99.90;;;;;;6074768;23;20712;-67
2021/05/01 06:20:10;;;;;;;17.83;11.73;;;9.80;99.90;;;;;;6075159;23;20416;-66
2021/05/01 06:22:37;;;;;;;18.53;12.57;;;9.80;99.90;;;;;;6074889;23;20912;-66
2021/05/01 06:25:09;;;;;;;20.50;14.03;;;9.80;99.90;;;;;;6075386;23;20490;-66
2021/05/01 06:27:36;;;;;;;17.97;12.00;;;9.80;99.90;;;;;;6074951;23;20436;-67
2021/05/01 06:30:04;;;;;;;15.20;12.17;;;9.90;99.90;;;;;;6074114;23;20432;-66
2021/05/01 06:32:32;;;;;;;20.20;12.70;;;10.00;99.90;;;;;;6074735;23;20405;-66
2021/05/01 06:35:02;;;;;;;18.70;12.73;;;10.00;99.90;;;;;;6074360;23;20483;-67
2021/05/01 06:37:29;;;;;;;16.33;12.90;;;10.10;99.90;;;;;;6074620;23;20416;-66
2021/05/01 06:40:05;;;;;;;19.77;11.90;;;10.10;99.90;;;;;;6074276;23;20490;-66
2021/05/01 06:42:35;;;;;;;16.67;13.30;;;10.10;99.90;;;;;;6074470;23;20408;-66
2021/05/01 06:45:07;;;;;;;18.00;12.43;;;10.10;99.90;;;;;;6073935;23;20405;-66
2021/05/01 06:47:37;;;;;;;18.00;13.93;;;10.20;99.90;;;;;;6074186;23;20432;-66
2021/05/01 06:50:08;;;;;;;16.77;13.23;;;10.20;99.90;;;;;;6074194;23;20424;-66
2021/05/01 06:52:38;;;;;;;17.63;12.80;;;10.20;99.90;;;;;;6074061;23;20404;-67
2021/05/01 06:55:06;;;;;;;17.10;12.90;;;10.20;99.90;;;;;;6074434;23;20424;-66
2021/05/01 06:57:35;;;;;;;16.80;12.80;;;10.20;99.90;;;;;;6073939;23;20423;-67
2021/05/01 07:00:02;;;;;;;19.27;13.07;;;10.30;99.90;;;;;;6073877;23;20456;-67
2021/05/01 07:02:30;;;;;;;19.37;12.87;;;10.30;99.90;;;;;;6074396;23;20462;-67
2021/05/01 07:05:00;;;;;;;17.83;11.77;;;10.30;99.90;;;;;;6073321;23;20425;-67
2021/05/01 07:07:28;;;;;;;17.83;12.77;;;10.40;99.90;;;;;;6074068;23;20432;-66
2021/05/01 07:09:56;;;;;;;21.67;12.87;;;10.40;99.90;;;;;;6073683;23;20420;-66
2021/05/01 07:12:23;;;;;;;20.47;13.87;;;10.50;99.90;;;;;;6074343;23;20431;-67
2021/05/01 07:14:50;;;;;;;21.77;14.10;;;10.50;99.90;;;;;;6074412;23;20432;-66
2021/05/01 07:17:17;;;;;;;28.23;14.57;;;10.50;99.90;;;;;;6073907;23;20427;-67
2021/05/01 07:19:44;;;;;;;19.03;14.10;;;10.50;99.90;;;;;;6073288;23;20902;-67
2021/05/01 07:22:13;;;;;;;21.30;14.53;;;10.50;99.90;;;;;;6074168;23;20863;-66
2021/05/01 07:24:39;;;;;;;20.37;14.07;;;10.50;99.90;;;;;;6074011;23;20431;-67
2021/05/01 07:27:08;;;;;;;21.80;14.20;;;10.40;99.90;;;;;;6073096;23;20451;-66
2021/05/01 07:29:38;;;;;;;19.07;13.20;;;10.40;99.90;;;;;;6073573;23;20716;-66
2021/05/01 07:32:06;;;;;;;20.23;13.57;;;10.30;99.90;;;;;;6073609;23;20448;-66
2021/05/01 07:34:34;;;;;;;19.27;13.60;;;10.30;99.90;;;;;;6073763;23;20501;-67
2021/05/01 07:37:04;;;;;;;24.53;15.90;;;10.30;99.90;;;;;;6073560;23;20463;-67
2021/05/01 07:39:32;;;;;;;22.73;14.10;;;10.30;99.90;;;;;;6073444;23;20648;-67
2021/05/01 07:42:00;;;;;;;19.83;14.90;;;10.30;99.90;;;;;;6074423;23;20420;-70
2021/05/01 07:44:28;;;;;;;23.40;16.27;;;10.10;99.90;;;;;;6073589;23;20420;-66
2021/05/01 07:46:55;;;;;;;26.23;16.53;;;10.00;99.90;;;;;;6073982;23;20459;-67
2021/05/01 07:49:21;;;;;;;23.10;15.43;;;10.00;99.90;;;;;;6074012;23;20424;-68
2021/05/01 07:51:48;;;;;;;20.57;15.00;;;9.90;99.90;;;;;;6073727;23;20420;-66
2021/05/01 07:54:16;;;;;;;18.10;13.97;;;9.90;99.90;;;;;;6074118;23;20416;-66
2021/05/01 07:56:44;;;;;;;21.47;14.20;;;9.90;99.90;;;;;;6083889;23;20864;-66
2021/05/01 07:59:10;;;;;;;24.67;15.43;;;10.00;99.90;;;;;;6073254;23;20962;-68
2021/05/01 08:01:37;;;;;;;25.63;14.70;;;10.10;99.90;;;;;;6074142;23;20647;-67
2021/05/01 08:04:06;;;;;;;26.73;18.17;;;10.10;99.90;;;;;;6074011;23;20432;-67
2021/05/01 08:06:33;;;;;;;21.00;14.00;;;10.10;99.90;;;;;;6074100;23;20527;-67
2021/05/01 08:08:59;;;;;;;20.00;13.90;;;10.20;99.90;;;;;;6073026;23;20416;-67
2021/05/01 08:11:25;;;;;;;23.10;14.33;;;10.30;99.90;;;;;;6072871;23;20487;-66
2021/05/01 08:13:52;;;;;;;21.60;14.07;;;10.40;99.90;;;;;;6073390;23;20421;-66
2021/05/01 08:16:18;;;;;;;17.53;13.03;;;10.40;99.90;;;;;;6072667;23;20881;-66
2021/05/01 08:18:44;;;;;;;23.83;13.60;;;10.50;99.90;;;;;;6072652;23;20431;-66
2021/05/01 08:21:11;;;;;;;20.63;12.83;;;10.60;99.90;;;;;;6072807;23;20420;-66
2021/05/01 08:23:37;;;;;;;20.90;13.50;;;10.70;99.90;;;;;;6073040;23;20428;-66
2021/05/01 08:26:06;;;;;;;19.10;13.47;;;10.90;99.90;;;;;;6072928;23;20741;-67
2021/05/01 08:28:32;;;;;;;19.33;14.07;;;11.10;99.90;;;;;;6072904;23;20420;-67
2021/05/01 08:31:00;;;;;;;22.03;14.27;;;11.20;99.90;;;;;;6072414;23;20978;-67
2021/05/01 08:33:26;;;;;;;17.80;12.93;;;11.40;99.90;;;;;;6072828;23;20424;-66
2021/05/01 08:35:53;;;;;;;20.00;12.60;;;11.60;99.90;;;;;;6072843;23;20420;-66
2021/05/01 08:38:20;;;;;;;20.83;12.53;;;11.80;99.90;;;;;;6073744;23;20488;-67
2021/05/01 08:40:47;;;;;;;19.73;12.60;;;12.10;99.90;;;;;;6072987;23;20420;-68
2021/05/01 08:43:13;;;;;;;23.30;13.33;;;12.30;99.90;;;;;;6076005;23;20561;-67
2021/05/01 08:45:41;;;;;;;16.47;12.93;;;12.40;99.90;;;;;;6077715;23;20475;-68
2021/05/01 08:48:08;;;;;;;14.50;12.30;;;12.60;99.90;;;;;;6078903;23;20480;-67
2021/05/01 08:50:39;;;;;;;17.43;12.17;;;12.70;99.90;;;;;;6071289;23;20420;-65
2021/05/01 08:53:06;;;;;;;16.93;13.20;;;12.80;99.90;;;;;;6071762;23;20409;-67
2021/05/01 08:55:35;;;;;;;21.57;13.67;;;12.90;99.90;;;;;;6071391;23;20416;-66
2021/05/01 08:58:02;;;;;;;18.07;13.47;;;12.90;99.90;;;;;;6071308;23;20487;-67
2021/05/01 09:00:28;;;;;;;15.70;13.17;;;12.90;99.90;;;;;;6076128;23;20420;-68
2021/05/01 09:03:04;;;;;;;18.97;12.30;;;12.80;99.90;;;;;;6080154;23;20424;-67
2021/05/01 09:05:33;;;;;;;19.63;13.97;;;12.80;99.90;;;;;;6071625;23;20404;-66
2021/05/01 09:08:03;;;;;;;18.47;13.83;;;12.80;99.90;;;;;;6071221;23;20507;-67
2021/05/01 09:10:37;;;;;;;17.77;13.37;;;12.80;99.90;;;;;;6071377;23;20405;-68
2021/05/01 09:13:12;;;;;;;19.13;13.53;;;12.80;99.90;;;;;;6075162;23;20472;-67
2021/05/01 09:15:38;;;;;;;16.37;12.30;;;12.80;99.90;;;;;;6083144;23;20910;-67
2021/05/01 09:18:06;;;;;;;18.53;13.73;;;12.80;99.90;;;;;;6074385;23;20459;-67
2021/05/01 09:20:34;;;;;;;19.40;13.60;;;12.90;99.90;;;;;;6072846;23;20479;-66
2021/05/01 09:23:02;;;;;;;18.67;12.53;;;12.80;99.90;;;;;;6073595;23;20432;-67
2021/05/01 09:25:33;;;;;;;19.60;13.43;;;12.90;99.90;;;;;;6072889;23;20420;-68
2021/05/01 09:28:06;;;;;;;17.33;12.93;;;12.90;99.90;;;;;;6073029;23;20451;-66
2021/05/01 09:30:34;;;;;;;18.10;13.27;;;12.90;99.90;;;;;;6072569;23;20444;-66
2021/05/01 09:33:23;;;;;;;16.80;13.20;;;13.10;99.90;;;;;;6071563;23;20405;-66
2021/05/01 09:35:57;;;;;;;18.30;12.77;;;13.10;99.90;;;;;;6071980;23;20411;-66
2021/05/01 09:38:24;;;;;;;18.00;12.73;;;13.20;99.90;;;;;;6071807;23;20415;-67
2021/05/01 09:40:51;;;;;;;18.20;13.07;;;13.40;99.90;;;;;;6071518;23;20495;-67
2021/05/01 09:43:18;;;;;;;14.73;11.90;;;13.50;99.90;;;;;;6071815;23;20423;-66
2021/05/01 09:45:44;;;;;;;19.17;13.43;;;13.50;99.90;;;;;;6071903;23;20420;-66
2021/05/01 09:48:12;;;;;;;16.57;13.13;;;13.60;99.90;;;;;;6071955;23;20440;-66
2021/05/01 09:50:39;;;;;;;15.70;12.40;;;13.60;99.90;;;;;;6072070;23;20424;-66
2021/05/01 09:53:10;;;;;;;18.90;12.93;;;13.70;99.90;;;;;;6071285;23;20862;-67
2021/05/01 09:55:44;;;;;;;17.80;12.70;;;13.80;99.90;;;;;;6071617;23;20416;-66
2021/05/01 09:58:18;;;;;;;14.33;11.80;;;13.90;99.90;;;;;;6072608;23;20405;-67
2021/05/01 10:00:46;;;;;;;15.80;11.63;;;14.00;99.90;;;;;;6071793;23;20404;-67
2021/05/01 10:03:22;;;;;;;14.37;12.23;;;14.30;99.90;;;;;;6071146;23;20424;-67
2021/05/01 10:05:51;;;;;;;14.97;11.37;;;14.50;99.90;;;;;;6070567;23;20479;-66
2021/05/01 10:08:21;;;;;;;15.60;12.20;;;14.70;99.90;;;;;;6070309;23;20883;-67
2021/05/01 10:10:49;;;;;;;12.57;11.23;;;14.80;99.90;;;;;;6070875;23;20446;-66
2021/05/01 10:13:15;;;;;;;14.83;10.90;;;14.90;99.90;;;;;;6071043;23;20416;-67
2021/05/01 10:15:43;;;;;;;13.43;11.27;;;14.80;99.90;;;;;;6070586;23;20443;-68
2021/05/01 10:18:11;;;;;;;14.67;10.97;;;14.80;99.90;;;;;;6071418;23;20412;-67
2021/05/01 10:20:45;;;;;;;14.47;11.50;;;14.70;99.90;;;;;;6071261;23;20423;-66
2021/05/01 10:23:15;;;;;;;15.13;10.80;;;14.70;99.90;;;;;;6070779;23;20401;-67
2021/05/01 10:25:43;;;;;;;15.20;11.90;;;14.70;99.90;;;;;;6071287;23;20443;-67
2021/05/01 10:28:12;;;;;;;13.23;10.00;;;14.70;99.90;;;;;;6071909;23;20592;-66
2021/05/01 10:30:41;;;;;;;13.70;11.23;;;14.80;99.90;;;;;;6073605;23;20953;-67
2021/05/01 10:33:16;;;;;;;11.50;9.80;;;14.80;99.90;;;;;;6074605;23;20773;-67
2021/05/01 10:35:51;;;;;;;13.90;10.50;;;14.80;99.90;;;;;;6072213;23;20404;-66
2021/05/01 10:38:22;;;;;;;13.57;11.03;;;14.70;99.90;;;;;;6071566;23;20396;-67
2021/05/01 10:40:50;;;;;;;13.37;11.53;;;14.70;99.90;;;;;;6071668;23;20492;-67
2021/05/01 10:43:20;;;;;;;13.50;11.20;;;14.70;99.90;;;;;;6071776;23;20428;-66
2021/05/01 10:45:51;;;;;;;14.40;10.73;;;14.60;99.90;;;;;;6072602;23;20427;-67
2021/05/01 10:48:18;;;;;;;11.97;9.40;;;14.50;99.90;;;;;;6072654;23;20458;-67
2021/05/01 10:50:44;;;;;;;15.50;11.07;;;14.40;99.90;;;;;;6072528;23;20427;-66
2021/05/01 10:53:19;;;;;;;13.63;11.20;;;14.30;99.90;;;;;;6072411;23;20695;-67
2021/05/01 10:55:48;;;;;;;12.23;10.80;;;14.10;99.90;;;;;;6072487;23;20637;-68
2021/05/01 10:58:32;;;;;;;13.87;11.30;;;14.00;99.90;;;;;;6072417;23;20898;-66
2021/05/01 11:00:59;;;;;;;15.13;11.27;;;13.90;99.90;;;;;;6072702;23;20416;-66
2021/05/01 11:03:26;;;;;;;16.67;11.70;;;13.80;99.90;;;;;;6072543;23;20420;-66
2021/05/01 11:05:54;;;;;;;14.10;10.90;;;13.80;99.90;;;;;;6072733;23;20420;-72
2021/05/01 11:08:30;;;;;;;12.70;10.80;;;13.80;99.90;;;;;;6072408;23;20444;-67
2021/05/01 11:10:57;;;;;;;16.40;11.50;;;13.80;99.90;;;;;;6073231;23;20418;-67
2021/05/01 11:13:26;;;;;;;14.17;12.67;;;13.80;99.90;;;;;;6072116;23;20420;-67
2021/05/01 11:15:57;;;;;;;15.70;12.63;;;13.90;99.90;;;;;;6072412;23;20430;-67
2021/05/01 11:18:25;;;;;;;14.20;11.80;;;13.90;99.90;;;;;;6072798;23;20412;-66
2021/05/01 11:20:53;;;;;;;12.60;10.83;;;14.10;99.90;;;;;;6072320;23;20420;-67
2021/05/01 11:23:26;;;;;;;13.13;11.17;;;14.10;99.90;;;;;;6072455;23;20421;-67
2021/05/01 11:25:54;;;;;;;14.47;11.40;;;14.30;99.90;;;;;;6072828;23;20416;-67
2021/05/01 11:28:24;;;;;;;14.13;11.60;;;14.50;99.90;;;;;;6073345;23;20444;-66
2021/05/01 11:30:52;;;;;;;13.23;11.10;;;14.80;99.90;;;;;;6072428;23;20551;-65
2021/05/01 11:33:20;;;;;;;14.57;10.60;;;15.00;99.90;;;;;;6072687;23;20435;-66
2021/05/01 11:35:48;;;;;;;15.30;11.87;;;15.20;99.90;;;;;;6072511;23;20420;-67
2021/05/01 11:38:26;;;;;;;15.60;11.23;;;15.40;99.90;;;;;;6073050;23;20417;-66
2021/05/01 11:40:55;;;;;;;13.37;11.07;;;15.70;99.90;;;;;;6072050;23;20756;-66
2021/05/01 11:43:30;;;;;;;16.23;10.93;;;15.90;99.90;;;;;;6072148;23;20420;-67
2021/05/01 11:46:13;;;;;;;12.90;10.87;;;16.00;99.90;;;;;;6071004;23;20942;-67
2021/05/01 11:48:45;;;;;;;11.07;9.90;;;15.90;99.90;;;;;;6072147;23;20404;-67
2021/05/01 11:51:17;;;;;;;12.27;11.07;;;15.60;99.90;;;;;;6071913;23;20472;-69
2021/05/01 11:53:46;;;;;;;14.50;11.20;;;15.50;99.90;;;;;;6072937;23;20415;-67
2021/05/01 11:56:29;;;;;;;13.00;10.93;;;15.50;99.90;;;;;;6072566;23;20486;-67
2021/05/01 11:59:20;;;;;;;11.17;9.77;;;15.60;99.90;;;;;;6071987;23;20420;-67
2021/05/01 12:01:58;;;;;;;12.10;10.83;;;15.70;99.90;;;;;;6050818;23;20491;-67
2021/05/01 12:04:59;;;;;;;14.20;11.80;;;15.90;99.90;;;;;;6071918;23;20401;-67
2021/05/01 12:07:33;;;;;;;11.83;10.30;;;15.80;99.90;;;;;;6071695;23;20910;-66
2021/05/01 12:10:05;;;;;;;12.17;10.87;;;15.70;99.90;;;;;;6071484;23;20405;-66
2021/05/01 12:12:34;;;;;;;13.00;10.50;;;15.60;99.90;;;;;;6071351;23;20500;-68
2021/05/01 12:15:03;;;;;;;15.10;10.27;;;15.60;99.90;;;;;;6071629;23;20700;-66
2021/05/01 12:17:31;;;;;;;12.20;10.10;;;15.40;99.90;;;;;;6070851;23;20422;-67
2021/05/01 12:20:12;;;;;;;11.50;10.30;;;15.30;99.90;;;;;;6072059;23;20421;-66
2021/05/01 12:22:39;;;;;;;11.70;9.33;;;15.20;99.90;;;;;;6071898;23;20400;-67
2021/05/01 12:25:53;;;;;;;12.93;10.23;;;15.10;99.90;;;;;;6072119;23;20420;-67
2021/05/01 12:28:34;;;;;;;12.40;10.73;;;15.00;99.90;;;;;;5956546;24;20432;-68
2021/05/01 12:31:02;;;;;;;12.17;10.83;;;14.90;99.90;;;;;;6057878;23;20497;-68
2021/05/01 12:33:51;;;;;;;11.90;10.60;;;14.70;99.90;;;;;;6071227;23;20519;-67
2021/05/01 12:36:24;;;;;;;11.50;10.13;;;14.60;99.90;;;;;;6070996;23;20410;-68
2021/05/01 12:38:50;;;;;;;13.53;10.33;;;14.50;99.90;;;;;;6071511;23;20460;-66